Time;durP1;ratioP1;P1;durP2;ratioP2;P2;SDS_P1;SDS_P2;PMS_P1;PMS_P2;Temp;Humidity;BMP_temperature;BMP_pressure;BME280_temperature;BME280_humidity;BME280_pressure;Samples;Min_cycle;Max_cycle;Signal;HPM_P1;HPM_P2
2022/05/02 00:01:38;;;;;;;12.30;8.95;;;9.70;99.90;;;;;;5114761;28;20185;-59
2022/05/02 00:04:04;;;;;;;12.85;9.63;;;9.70;99.90;;;;;;5115932;28;20185;-59
2022/05/02 00:06:30;;;;;;;12.68;8.60;;;9.80;99.90;;;;;;5115843;28;20173;-59
2022/05/02 00:08:55;;;;;;;12.20;9.10;;;9.80;99.90;;;;;;5114612;28;20592;-59
2022/05/02 00:11:21;;;;;;;11.02;8.50;;;9.90;99.90;;;;;;5114672;28;20715;-59
2022/05/02 00:13:46;;;;;;;11.57;8.85;;;9.90;99.90;;;;;;5115730;28;20656;-59
2022/05/02 00:16:12;;;;;;;12.40;9.48;;;9.90;99.90;;;;;;5115772;28;20205;-59
2022/05/02 00:18:38;;;;;;;10.60;8.02;;;9.80;99.90;;;;;;5115706;28;20184;-59
2022/05/02 00:21:04;;;;;;;15.55;9.93;;;9.90;99.90;;;;;;5115567;28;20177;-59
2022/05/02 00:23:29;;;;;;;12.35;9.13;;;9.90;99.90;;;;;;5114652;28;20177;-59
2022/05/02 00:25:55;;;;;;;13.25;9.15;;;9.90;99.90;;;;;;5114386;28;20184;-59
2022/05/02 00:28:21;;;;;;;11.00;8.25;;;9.80;99.90;;;;;;5114713;28;20649;-59
2022/05/02 00:30:47;;;;;;;11.38;9.05;;;9.70;99.90;;;;;;5115618;28;20658;-59
2022/05/02 00:33:13;;;;;;;12.10;8.93;;;9.60;99.90;;;;;;5115470;28;20212;-59
2022/05/02 00:35:38;;;;;;;12.93;9.90;;;9.60;99.90;;;;;;5097032;28;20651;-59
2022/05/02 00:38:05;;;;;;;12.48;9.45;;;9.50;99.90;;;;;;5114078;28;20173;-59
2022/05/02 00:40:32;;;;;;;11.30;8.80;;;9.50;99.90;;;;;;5115335;28;20630;-59
2022/05/02 00:42:58;;;;;;;12.30;9.25;;;9.60;99.90;;;;;;5115263;28;20180;-59
2022/05/02 00:45:23;;;;;;;11.77;9.05;;;9.60;99.90;;;;;;5113890;28;20173;-59
2022/05/02 00:47:50;;;;;;;10.60;8.43;;;9.50;99.90;;;;;;5113935;28;20177;-59
2022/05/02 00:50:17;;;;;;;11.60;8.32;;;9.50;99.90;;;;;;5114872;28;20201;-59
2022/05/02 00:52:42;;;;;;;11.77;8.60;;;9.40;99.90;;;;;;5113978;28;20191;-59
2022/05/02 00:55:08;;;;;;;11.15;8.48;;;9.40;99.90;;;;;;5115056;28;20186;-59
2022/05/02 00:57:34;;;;;;;10.48;8.63;;;9.50;99.90;;;;;;5113952;28;20195;-59
2022/05/02 01:00:01;;;;;;;11.00;7.97;;;9.50;99.90;;;;;;5114832;28;20177;-59
2022/05/02 01:02:26;;;;;;;11.07;8.55;;;9.50;99.90;;;;;;5114910;28;20180;-59
2022/05/02 01:04:52;;;;;;;11.35;8.77;;;9.50;99.90;;;;;;5114763;28;20189;-59
2022/05/02 01:07:20;;;;;;;10.45;8.38;;;9.50;99.90;;;;;;5114907;28;20216;-59
2022/05/02 01:09:51;;;;;;;11.43;8.80;;;9.40;99.90;;;;;;5114847;28;20201;-59
2022/05/02 01:12:19;;;;;;;11.27;8.63;;;9.40;99.90;;;;;;5114773;28;20185;-59
2022/05/02 01:14:49;;;;;;;11.93;8.80;;;9.30;99.90;;;;;;5114623;28;20196;-59
2022/05/02 01:17:15;;;;;;;11.38;8.50;;;9.30;99.90;;;;;;5113401;28;20173;-59
2022/05/02 01:19:43;;;;;;;10.25;8.02;;;9.20;99.90;;;;;;5114365;28;20165;-59
2022/05/02 01:22:08;;;;;;;11.90;8.85;;;9.20;99.90;;;;;;5114587;28;20660;-59
2022/05/02 01:24:46;;;;;;;12.88;8.68;;;9.30;99.90;;;;;;5114479;28;20196;-59
2022/05/02 01:27:13;;;;;;;13.10;9.80;;;9.30;99.90;;;;;;5114584;28;20523;-59
2022/05/02 01:29:43;;;;;;;10.95;8.48;;;9.40;99.90;;;;;;5114320;28;20169;-59
2022/05/02 01:32:15;;;;;;;12.70;8.70;;;9.40;99.90;;;;;;5114147;28;20201;-59
2022/05/02 01:34:41;;;;;;;10.88;8.32;;;9.40;99.90;;;;;;5114212;28;20223;-59
2022/05/02 01:37:08;;;;;;;12.27;8.25;;;9.30;99.90;;;;;;5114265;28;20183;-59
2022/05/02 01:39:33;;;;;;;10.77;8.70;;;9.30;99.90;;;;;;5114133;28;20690;-59
2022/05/02 01:42:00;;;;;;;12.65;9.07;;;9.30;99.90;;;;;;5114147;28;20189;-59
2022/05/02 01:44:26;;;;;;;10.40;8.10;;;9.30;99.90;;;;;;5113933;28;20536;-59
2022/05/02 01:46:52;;;;;;;12.35;8.60;;;9.40;99.90;;;;;;5112978;28;20195;-59
2022/05/02 01:49:18;;;;;;;12.38;9.00;;;9.30;99.90;;;;;;5114045;28;20533;-59
2022/05/02 01:51:43;;;;;;;11.98;8.48;;;9.30;99.90;;;;;;5112753;28;20216;-59
2022/05/02 01:54:09;;;;;;;12.18;8.93;;;9.20;99.90;;;;;;5113967;28;20630;-59
2022/05/02 01:56:35;;;;;;;12.07;8.35;;;9.00;99.90;;;;;;5113847;28;20169;-59
2022/05/02 01:59:01;;;;;;;11.38;8.25;;;9.00;99.90;;;;;;5113862;28;20169;-59
2022/05/02 02:01:26;;;;;;;11.00;8.00;;;9.00;99.90;;;;;;5113766;28;20224;-59
2022/05/02 02:03:52;;;;;;;12.38;8.90;;;9.00;99.90;;;;;;5113703;28;20200;-59
2022/05/02 02:06:18;;;;;;;11.40;8.52;;;9.00;99.90;;;;;;5113777;28;20173;-59
2022/05/02 02:08:43;;;;;;;10.05;8.30;;;9.00;99.90;;;;;;5113371;28;20173;-59
2022/05/02 02:11:10;;;;;;;10.73;8.32;;;8.90;99.90;;;;;;5113689;28;20205;-59
2022/05/02 02:13:37;;;;;;;14.00;9.65;;;8.80;99.90;;;;;;5113669;28;20256;-59
2022/05/02 02:16:07;;;;;;;11.73;8.55;;;8.70;99.90;;;;;;5095381;28;20260;-59
2022/05/02 02:18:33;;;;;;;11.55;8.77;;;8.70;99.90;;;;;;5113757;28;20170;-59
2022/05/02 02:20:59;;;;;;;11.85;9.27;;;8.70;99.90;;;;;;5113740;28;20204;-59
2022/05/02 02:23:25;;;;;;;12.25;8.20;;;8.70;99.90;;;;;;5113710;28;20507;-59
2022/05/02 02:25:51;;;;;;;11.82;8.65;;;8.70;99.90;;;;;;5113644;28;20166;-59
2022/05/02 02:28:17;;;;;;;13.48;9.18;;;8.70;99.90;;;;;;5113427;28;20649;-59
2022/05/02 02:30:44;;;;;;;12.32;8.52;;;8.70;99.90;;;;;;5113593;28;20197;-59
2022/05/02 02:33:10;;;;;;;9.63;8.02;;;8.60;99.90;;;;;;5112308;28;20241;-59
2022/05/02 02:35:36;;;;;;;12.25;9.00;;;8.70;99.90;;;;;;5112186;28;20181;-59
2022/05/02 02:38:02;;;;;;;9.57;8.52;;;8.70;99.90;;;;;;5113601;28;20173;-59
2022/05/02 02:40:29;;;;;;;13.52;9.43;;;8.70;99.90;;;;;;5113444;28;20586;-59
2022/05/02 02:42:55;;;;;;;13.15;9.60;;;8.70;99.90;;;;;;5113351;28;20169;-59
2022/05/02 02:45:21;;;;;;;12.43;9.40;;;8.60;99.90;;;;;;5113541;28;20177;-59
2022/05/02 02:47:46;;;;;;;11.65;8.48;;;8.40;99.90;;;;;;5113666;28;20615;-59
2022/05/02 02:50:12;;;;;;;12.38;9.18;;;8.40;99.90;;;;;;5113213;28;20670;-59
2022/05/02 02:52:38;;;;;;;10.98;8.93;;;8.40;99.90;;;;;;5113621;28;20182;-59
2022/05/02 02:55:04;;;;;;;12.52;8.82;;;8.50;99.90;;;;;;5113279;28;20222;-59
2022/05/02 02:57:30;;;;;;;11.88;9.05;;;8.40;99.90;;;;;;5113125;28;20170;-59
2022/05/02 02:59:56;;;;;;;11.00;8.73;;;8.40;99.90;;;;;;5112237;28;20184;-59
2022/05/02 03:02:22;;;;;;;11.65;8.50;;;8.40;99.90;;;;;;5113387;28;20196;-59
2022/05/02 03:07:33;;;;;;;11.77;8.60;;;8.30;99.90;;;;;;5113250;28;20224;-59
2022/05/02 03:09:58;;;;;;;13.18;9.80;;;8.30;99.90;;;;;;5113057;28;20623;-59
2022/05/02 03:12:25;;;;;;;11.98;8.85;;;8.20;99.90;;;;;;5113076;28;20170;-59
2022/05/02 03:14:50;;;;;;;12.48;8.95;;;8.20;99.90;;;;;;5111947;28;20550;-59
2022/05/02 03:17:16;;;;;;;12.13;8.93;;;8.30;99.90;;;;;;5113187;28;20186;-59
2022/05/02 03:19:42;;;;;;;12.05;8.68;;;8.30;99.90;;;;;;5112333;28;20634;-59
2022/05/02 03:22:08;;;;;;;11.82;8.63;;;8.30;99.90;;;;;;5116830;28;20180;-59
2022/05/02 03:24:33;;;;;;;11.68;8.95;;;8.30;99.90;;;;;;5116906;28;20177;-59
2022/05/02 03:26:59;;;;;;;12.13;9.00;;;8.10;99.90;;;;;;5115717;28;20177;-59
2022/05/02 03:29:25;;;;;;;10.95;8.13;;;8.00;99.90;;;;;;5116783;28;20188;-59
2022/05/02 03:31:51;;;;;;;11.85;8.63;;;8.00;99.90;;;;;;5116592;28;20207;-59
2022/05/02 03:34:17;;;;;;;11.65;8.70;;;7.90;99.90;;;;;;5115383;28;20662;-59
2022/05/02 03:36:42;;;;;;;13.35;9.80;;;7.80;99.90;;;;;;5116544;28;20181;-59
2022/05/02 03:39:08;;;;;;;12.80;9.05;;;7.70;99.90;;;;;;5116392;28;20173;-59
2022/05/02 03:41:34;;;;;;;12.55;9.00;;;7.70;99.90;;;;;;5116665;27;20180;-59
2022/05/02 03:44:00;;;;;;;11.82;9.18;;;7.70;99.90;;;;;;5116812;28;20189;-58
2022/05/02 03:46:25;;;;;;;11.25;8.70;;;7.70;99.90;;;;;;5116470;28;20698;-59
2022/05/02 03:48:51;;;;;;;10.77;8.40;;;7.60;99.90;;;;;;5116389;28;20657;-59
2022/05/02 03:51:17;;;;;;;10.63;7.00;;;7.60;99.90;;;;;;5116157;28;20205;-59
2022/05/02 03:53:43;;;;;;;13.40;9.38;;;7.60;99.90;;;;;;5116058;28;20177;-59
2022/05/02 03:56:09;;;;;;;10.80;8.43;;;7.60;99.90;;;;;;5116339;28;20165;-58
2022/05/02 03:58:35;;;;;;;12.57;8.73;;;7.60;99.90;;;;;;5116217;28;20173;-58
2022/05/02 04:01:01;;;;;;;11.10;8.68;;;7.50;99.90;;;;;;5115971;28;20303;-58
2022/05/02 04:03:27;;;;;;;10.75;8.27;;;7.50;99.90;;;;;;5116073;28;20503;-58
2022/05/02 04:05:53;;;;;;;11.68;8.70;;;7.60;99.90;;;;;;5114608;28;20272;-59
2022/05/02 04:08:18;;;;;;;11.70;8.35;;;7.50;99.90;;;;;;5115821;28;20177;-59
2022/05/02 04:10:44;;;;;;;12.38;8.82;;;7.50;99.90;;;;;;5116006;28;20649;-59
2022/05/02 04:13:10;;;;;;;12.95;9.05;;;7.50;99.90;;;;;;5116010;28;20169;-59
2022/05/02 04:15:36;;;;;;;10.75;7.32;;;7.50;99.90;;;;;;5115779;28;20183;-59
2022/05/02 04:18:02;;;;;;;12.70;9.63;;;7.50;99.90;;;;;;5114813;28;20174;-59
2022/05/02 04:20:28;;;;;;;11.68;8.75;;;7.50;99.90;;;;;;5115752;28;20233;-58
2022/05/02 04:22:53;;;;;;;13.85;9.05;;;7.60;99.90;;;;;;5115530;28;20173;-59
2022/05/02 04:25:19;;;;;;;11.38;8.98;;;7.60;99.90;;;;;;5115965;28;20180;-59
2022/05/02 04:27:45;;;;;;;11.75;8.93;;;7.70;99.90;;;;;;5115892;28;20175;-59
2022/05/02 04:30:12;;;;;;;12.25;7.55;;;7.60;99.90;;;;;;5115496;28;20173;-59
2022/05/02 04:32:38;;;;;;;13.00;7.45;;;7.50;99.90;;;;;;5115354;28;20274;-59
2022/05/02 04:35:05;;;;;;;10.82;8.40;;;7.50;99.90;;;;;;5115687;28;20248;-58
2022/05/02 04:37:31;;;;;;;11.40;8.55;;;7.50;99.90;;;;;;5115232;28;20179;-58
2022/05/02 04:39:57;;;;;;;11.02;8.40;;;7.40;99.90;;;;;;5115313;28;20170;-58
2022/05/02 04:42:23;;;;;;;11.63;9.18;;;7.50;99.90;;;;;;5115519;28;20174;-58
2022/05/02 04:44:48;;;;;;;13.63;8.73;;;7.50;99.90;;;;;;5115288;28;20192;-59
2022/05/02 04:47:15;;;;;;;14.25;10.18;;;7.40;99.90;;;;;;5115485;28;20522;-58
2022/05/02 04:49:40;;;;;;;12.30;9.18;;;7.50;99.90;;;;;;5115104;28;20271;-58
2022/05/02 04:52:06;;;;;;;12.65;9.32;;;7.50;99.90;;;;;;5114908;28;20288;-58
2022/05/02 04:54:32;;;;;;;12.60;9.02;;;7.50;99.90;;;;;;5115172;28;20642;-59
2022/05/02 04:56:58;;;;;;;12.52;9.30;;;7.60;99.90;;;;;;5115150;28;20224;-58
2022/05/02 04:59:23;;;;;;;13.25;9.15;;;7.70;99.90;;;;;;5115277;28;20242;-58
2022/05/02 05:01:49;;;;;;;11.93;8.90;;;7.60;99.90;;;;;;5114742;28;20650;-59
2022/05/02 05:04:15;;;;;;;12.52;8.77;;;7.70;99.90;;;;;;5112944;28;20242;-58
2022/05/02 05:06:40;;;;;;;14.35;9.98;;;7.80;99.90;;;;;;5113812;28;20174;-59
2022/05/02 05:09:06;;;;;;;12.52;9.55;;;7.90;99.90;;;;;;5114761;28;20174;-59
2022/05/02 05:11:32;;;;;;;13.35;9.43;;;7.90;99.90;;;;;;5114673;28;20657;-59
2022/05/02 05:17:10;;;;;;;11.82;9.23;;;8.00;99.90;;;;;;5114827;28;20179;-59
2022/05/02 05:19:53;;;;;;;13.35;9.00;;;8.10;99.90;;;;;;5114732;28;20240;-59
2022/05/02 05:22:44;;;;;;;13.23;9.27;;;8.20;99.90;;;;;;5113315;28;20199;-59
2022/05/02 05:25:31;;;;;;;13.05;9.25;;;8.40;99.90;;;;;;5114441;28;20169;-59
2022/05/02 05:28:29;;;;;;;12.52;9.68;;;8.50;99.90;;;;;;5112627;28;20169;-59
2022/05/02 05:31:06;;;;;;;12.93;9.65;;;8.60;99.90;;;;;;5110081;28;20215;-59
2022/05/02 05:33:31;;;;;;;11.93;9.27;;;8.60;99.90;;;;;;5114171;28;20180;-59
2022/05/02 05:36:17;;;;;;;14.18;9.77;;;8.80;99.90;;;;;;5114216;28;20177;-59
2022/05/02 05:39:06;;;;;;;13.50;10.25;;;8.90;99.90;;;;;;5114163;28;20164;-59
2022/05/02 05:42:09;;;;;;;14.40;10.38;;;9.00;99.90;;;;;;5114180;28;20176;-59
2022/05/02 05:44:45;;;;;;;15.15;10.25;;;9.20;99.90;;;;;;5113874;28;20166;-59
2022/05/02 05:47:39;;;;;;;13.32;10.15;;;9.50;99.90;;;;;;5114114;28;20191;-59
2022/05/02 05:50:15;;;;;;;14.32;10.15;;;9.80;99.90;;;;;;5113865;28;20169;-59
2022/05/02 05:52:54;;;;;;;14.43;10.15;;;10.00;99.90;;;;;;5113928;28;20595;-59
2022/05/02 05:55:30;;;;;;;13.77;10.57;;;10.10;99.90;;;;;;5113964;28;20183;-59
2022/05/02 05:58:15;;;;;;;15.45;9.90;;;10.30;99.90;;;;;;5114248;28;20176;-59
2022/05/02 06:00:44;;;;;;;14.50;10.07;;;10.50;99.90;;;;;;5113817;28;20175;-59
2022/05/02 06:03:15;;;;;;;13.90;10.68;;;10.60;99.90;;;;;;5113802;28;20204;-59
2022/05/02 06:05:46;;;;;;;13.45;10.05;;;10.80;99.90;;;;;;5113499;28;20196;-59
2022/05/02 06:08:21;;;;;;;12.57;9.35;;;11.10;99.90;;;;;;5113894;28;20201;-59
2022/05/02 06:10:49;;;;;;;12.48;9.45;;;11.30;99.90;;;;;;5113660;28;20201;-59
2022/05/02 06:13:16;;;;;;;13.07;9.93;;;11.50;99.90;;;;;;5113637;28;20165;-59
2022/05/02 06:18:34;;;;;;;11.95;9.52;;;11.80;99.90;;;;;;5113886;28;20189;-59
2022/05/02 06:21:02;;;;;;;12.90;9.93;;;12.00;99.90;;;;;;5113598;28;20200;-59
2022/05/02 06:23:38;;;;;;;11.70;9.27;;;12.10;99.90;;;;;;5113592;28;20165;-59
2022/05/02 06:26:06;;;;;;;14.00;10.13;;;12.20;99.90;;;;;;5113820;28;20168;-59
2022/05/02 06:28:40;;;;;;;12.27;9.32;;;12.40;99.90;;;;;;5113679;28;20204;-59
2022/05/02 06:31:12;;;;;;;13.20;9.73;;;12.60;99.90;;;;;;5113370;28;20193;-59
2022/05/02 06:33:39;;;;;;;12.68;9.13;;;12.90;99.90;;;;;;5113449;28;20173;-59
2022/05/02 06:36:20;;;;;;;13.60;10.25;;;13.00;99.90;;;;;;5113371;28;20173;-59
2022/05/02 06:38:54;;;;;;;11.02;8.75;;;13.00;99.90;;;;;;5113768;28;20165;-59
2022/05/02 06:41:23;;;;;;;12.13;9.25;;;13.00;99.90;;;;;;5113567;28;20191;-59
2022/05/02 06:44:16;;;;;;;13.32;9.57;;;13.00;99.90;;;;;;5113487;28;20173;-59
2022/05/02 06:47:05;;;;;;;12.95;9.98;;;13.10;99.90;;;;;;5113290;28;20218;-59
2022/05/02 06:49:33;;;;;;;11.70;8.85;;;13.30;99.90;;;;;;5112862;28;20188;-59
2022/05/02 06:52:01;;;;;;;13.02;9.32;;;13.30;99.90;;;;;;5113363;28;20197;-59
2022/05/02 06:54:49;;;;;;;14.30;9.32;;;13.40;99.90;;;;;;5113358;28;20262;-59
2022/05/02 06:57:43;;;;;;;12.25;8.85;;;13.40;99.90;;;;;;5117202;28;20169;-59
2022/05/02 07:00:15;;;;;;;13.23;9.32;;;13.60;99.90;;;;;;5117415;28;20204;-59
2022/05/02 07:03:26;;;;;;;13.52;9.63;;;13.70;99.90;;;;;;5116250;28;20169;-59
2022/05/02 07:06:36;;;;;;;13.05;9.23;;;13.80;99.90;;;;;;5116944;28;20220;-59
2022/05/02 07:09:04;;;;;;;12.30;8.93;;;13.80;99.90;;;;;;5093483;28;20235;-59
2022/05/02 07:12:11;;;;;;;11.85;8.80;;;14.10;99.90;;;;;;5116868;28;20253;-59
2022/05/02 07:14:51;;;;;;;10.63;8.55;;;14.30;99.90;;;;;;5115474;28;20188;-59
2022/05/02 07:17:43;;;;;;;12.48;9.50;;;14.20;99.90;;;;;;5116957;28;20544;-59
2022/05/02 07:20:43;;;;;;;13.40;8.88;;;14.00;99.90;;;;;;5100311;28;20251;-60
2022/05/02 07:23:30;;;;;;;12.57;9.13;;;14.10;99.90;;;;;;5107440;28;20184;-59
2022/05/02 07:26:15;;;;;;;11.82;9.60;;;14.20;99.90;;;;;;5116894;28;20165;-59
2022/05/02 07:28:45;;;;;;;12.30;8.95;;;14.30;99.90;;;;;;5116904;28;20174;-59
2022/05/02 07:31:20;;;;;;;11.95;8.63;;;14.50;99.90;;;;;;5116651;28;20197;-59
2022/05/02 07:33:53;;;;;;;10.43;8.32;;;14.60;99.90;;;;;;5116670;28;20173;-60
2022/05/02 07:36:24;;;;;;;12.07;8.68;;;14.90;99.90;;;;;;5116695;28;20193;-60
2022/05/02 07:39:00;;;;;;;11.18;8.85;;;15.00;99.90;;;;;;5116414;28;20229;-60
2022/05/02 07:41:26;;;;;;;10.85;8.13;;;14.80;99.90;;;;;;5116610;28;20654;-58
2022/05/02 07:43:58;;;;;;;10.85;8.00;;;14.80;99.90;;;;;;5116467;28;20181;-60
2022/05/02 07:46:27;;;;;;;12.75;8.20;;;14.90;99.90;;;;;;5116403;28;20192;-60
2022/05/02 07:48:56;;;;;;;9.50;7.93;;;15.00;99.90;;;;;;5116246;28;20169;-60
2022/05/02 07:51:23;;;;;;;12.10;8.10;;;15.20;99.90;;;;;;5116026;28;20854;-59
2022/05/02 07:53:51;;;;;;;11.27;8.18;;;15.10;99.90;;;;;;5116383;28;20193;-60
2022/05/02 07:56:20;;;;;;;10.23;7.38;;;15.30;99.90;;;;;;5116399;28;20268;-59
2022/05/02 07:58:47;;;;;;;10.00;7.20;;;15.40;99.90;;;;;;5116288;28;20180;-60
2022/05/02 08:01:17;;;;;;;10.13;7.65;;;15.30;99.90;;;;;;5116072;28;20177;-59
2022/05/02 08:03:43;;;;;;;9.73;6.15;;;15.60;99.90;;;;;;5115729;28;20176;-60
2022/05/02 08:06:47;;;;;;;11.05;8.07;;;15.80;99.90;;;;;;5115630;28;20539;-60
2022/05/02 08:09:16;;;;;;;10.10;7.20;;;15.90;99.90;;;;;;5106330;28;20183;-60
2022/05/02 08:11:51;;;;;;;9.00;6.45;;;15.90;99.70;;;;;;5115706;28;20189;-60
2022/05/02 08:14:22;;;;;;;7.00;5.75;;;16.10;99.70;;;;;;5115784;28;20180;-59
2022/05/02 08:16:57;;;;;;;9.15;6.28;;;16.40;99.90;;;;;;5115965;28;20166;-59
2022/05/02 08:19:39;;;;;;;8.55;5.97;;;16.40;98.60;;;;;;5115779;28;20614;-60
2022/05/02 08:28:07;;;;;;;7.10;5.18;;;16.20;97.20;;;;;;5115539;28;20172;-59
2022/05/02 08:30:39;;;;;;;5.68;4.40;;;16.00;97.60;;;;;;5115484;28;20272;-59
2022/05/02 08:33:07;;;;;;;7.80;5.38;;;16.10;97.90;;;;;;5115403;28;20180;-60
2022/05/02 08:35:51;;;;;;;7.22;5.60;;;16.30;98.20;;;;;;5115294;28;20166;-60
2022/05/02 08:38:41;;;;;;;5.40;4.65;;;16.60;97.50;;;;;;5115391;28;20180;-59
2022/05/02 08:41:28;;;;;;;7.05;4.93;;;16.70;95.40;;;;;;5115155;28;20177;-59
2022/05/02 08:44:03;;;;;;;6.65;4.20;;;16.60;94.70;;;;;;5115213;28;20176;-60
2022/05/02 08:46:46;;;;;;;6.82;4.43;;;16.90;96.10;;;;;;5115260;28;20173;-60
2022/05/02 08:49:49;;;;;;;6.28;4.82;;;17.00;94.30;;;;;;5113758;28;20177;-60
2022/05/02 08:52:27;;;;;;;6.25;5.03;;;17.00;93.80;;;;;;5115168;28;20196;-60
2022/05/02 08:55:08;;;;;;;5.63;4.60;;;17.10;93.10;;;;;;5115410;28;20172;-60
2022/05/02 08:58:01;;;;;;;7.13;5.25;;;16.90;91.40;;;;;;5114984;28;20258;-60
2022/05/02 09:00:51;;;;;;;6.32;4.88;;;17.10;92.80;;;;;;5114838;28;20652;-60
2022/05/02 09:03:35;;;;;;;6.65;5.18;;;17.10;91.60;;;;;;5114961;28;20211;-59
2022/05/02 09:06:31;;;;;;;6.40;4.55;;;17.00;91.70;;;;;;5114687;28;20197;-60
2022/05/02 09:09:28;;;;;;;7.90;5.35;;;16.80;88.10;;;;;;5114877;28;20173;-60
2022/05/02 09:12:41;;;;;;;7.32;5.30;;;16.90;90.00;;;;;;5114679;28;20193;-60
2022/05/02 09:15:49;;;;;;;5.85;4.45;;;17.10;92.10;;;;;;5110845;28;20193;-60
2022/05/02 09:18:52;;;;;;;9.15;5.97;;;17.40;91.20;;;;;;5112792;28;20243;-60
2022/05/02 09:21:41;;;;;;;8.43;5.38;;;17.20;88.90;;;;;;5114635;28;20173;-60
2022/05/02 09:24:45;;;;;;;7.43;5.28;;;17.30;91.20;;;;;;5114702;28;20165;-60
2022/05/02 09:27:24;;;;;;;8.85;5.30;;;17.40;91.70;;;;;;5071458;28;20170;-60
2022/05/02 09:30:17;;;;;;;6.97;5.60;;;17.50;90.40;;;;;;5071623;28;20213;-60
2022/05/02 09:33:15;;;;;;;6.28;5.00;;;17.50;88.20;;;;;;5103515;28;20224;-60
2022/05/02 09:35:53;;;;;;;6.90;5.18;;;17.70;90.90;;;;;;5093982;28;20182;-60
2022/05/02 09:38:32;;;;;;;6.00;5.13;;;17.90;86.10;;;;;;5114380;28;20173;-60
2022/05/02 09:41:25;;;;;;;6.47;5.07;;;17.80;87.40;;;;;;5114363;28;20172;-60
2022/05/02 09:50:45;;;;;;;8.27;4.95;;;18.10;82.00;;;;;;5114193;28;20215;-60
2022/05/02 09:53:20;;;;;;;7.32;5.72;;;18.20;80.70;;;;;;5114050;28;20175;-60
2022/05/02 09:59:25;;;;;;;6.40;4.68;;;18.20;82.70;;;;;;5114247;28;20230;-60
2022/05/02 10:02:08;;;;;;;7.45;5.57;;;18.10;83.70;;;;;;5106343;28;20277;-60
2022/05/02 10:04:48;;;;;;;6.35;4.93;;;18.30;79.50;;;;;;5113674;28;20664;-60
2022/05/02 10:07:18;;;;;;;8.70;5.53;;;18.20;80.10;;;;;;5113900;28;20633;-60
2022/05/02 10:09:58;;;;;;;7.35;5.50;;;18.20;80.50;;;;;;5113878;28;20173;-60
2022/05/02 10:12:48;;;;;;;7.57;5.63;;;18.30;80.00;;;;;;5113748;28;20770;-60
2022/05/02 10:15:47;;;;;;;7.72;5.55;;;18.30;78.80;;;;;;5113872;28;20173;-61
2022/05/02 10:18:29;;;;;;;9.05;5.47;;;18.30;78.00;;;;;;5113868;28;20180;-60
2022/05/02 10:21:07;;;;;;;7.72;5.78;;;18.20;81.00;;;;;;5113956;28;20177;-60
2022/05/02 10:24:10;;;;;;;7.50;5.43;;;18.00;76.70;;;;;;5113834;28;20201;-60
2022/05/02 10:27:00;;;;;;;7.20;3.90;;;18.00;80.20;;;;;;5113628;28;20176;-60
2022/05/02 10:30:05;;;;;;;5.72;4.38;;;18.30;77.70;;;;;;5115313;28;20170;-60
2022/05/02 10:32:37;;;;;;;6.80;5.32;;;18.60;80.70;;;;;;5117909;28;20197;-61
2022/05/02 10:35:03;;;;;;;7.65;5.60;;;18.60;77.20;;;;;;5117724;28;20186;-60
2022/05/02 10:37:35;;;;;;;9.07;5.15;;;18.60;76.60;;;;;;5117738;28;20643;-61
2022/05/02 10:40:10;;;;;;;6.00;5.03;;;18.50;76.40;;;;;;5117040;28;20172;-60
2022/05/02 10:42:42;;;;;;;5.18;4.30;;;18.60;78.60;;;;;;5117789;28;20161;-60
2022/05/02 10:45:10;;;;;;;6.85;5.03;;;18.90;78.60;;;;;;5117530;28;20196;-61
2022/05/02 10:47:44;;;;;;;7.15;4.93;;;18.90;74.70;;;;;;5117482;28;20246;-61
2022/05/02 10:50:19;;;;;;;6.85;4.75;;;18.90;74.80;;;;;;5117452;28;20177;-60
2022/05/02 10:52:59;;;;;;;5.43;4.63;;;19.00;74.40;;;;;;5117472;28;20538;-61
2022/05/02 10:55:33;;;;;;;6.22;4.85;;;18.90;73.70;;;;;;5117552;28;20514;-61
2022/05/02 10:58:04;;;;;;;5.80;4.40;;;19.00;75.20;;;;;;5117477;28;20307;-60
2022/05/02 11:00:31;;;;;;;6.28;4.63;;;19.20;76.50;;;;;;5117320;28;20177;-61
2022/05/02 11:03:24;;;;;;;7.50;4.97;;;18.90;73.30;;;;;;5117128;28;20170;-61
2022/05/02 11:06:27;;;;;;;6.47;4.82;;;18.90;75.10;;;;;;5117209;28;20189;-61
2022/05/02 11:09:01;;;;;;;6.32;4.50;;;18.80;71.40;;;;;;5117034;28;20213;-61
2022/05/02 11:11:43;;;;;;;6.38;4.25;;;18.60;71.20;;;;;;5117029;28;20531;-61
2022/05/02 11:14:24;;;;;;;5.47;4.00;;;18.50;71.90;;;;;;5117215;28;20173;-61
2022/05/02 11:16:59;;;;;;;6.03;4.28;;;18.90;76.50;;;;;;5117033;28;20363;-61
2022/05/02 11:22:40;;;;;;;5.07;4.20;;;18.70;72.80;;;;;;5117210;28;20192;-61
2022/05/02 11:25:19;;;;;;;5.75;4.40;;;19.00;72.70;;;;;;5116945;28;20223;-60
2022/05/02 11:28:21;;;;;;;6.07;4.22;;;19.10;71.40;;;;;;5116721;28;20251;-60
2022/05/02 11:30:55;;;;;;;6.15;4.43;;;19.40;72.60;;;;;;5116823;28;20204;-61
2022/05/02 11:33:41;;;;;;;5.95;4.78;;;19.20;69.60;;;;;;5116872;28;20541;-61
2022/05/02 11:36:10;;;;;;;5.75;4.22;;;19.20;71.80;;;;;;5116612;28;20177;-61
2022/05/02 11:38:50;;;;;;;6.93;4.82;;;19.40;71.60;;;;;;5116748;28;20165;-61
2022/05/02 11:41:18;;;;;;;5.00;4.25;;;19.30;71.00;;;;;;5115620;28;20219;-61
2022/05/02 11:43:46;;;;;;;5.93;4.38;;;19.40;71.70;;;;;;5116514;28;20230;-60
2022/05/02 11:46:15;;;;;;;5.68;4.15;;;19.20;68.30;;;;;;5116366;28;20644;-61
2022/05/02 11:49:04;;;;;;;5.85;4.55;;;19.00;71.20;;;;;;5116230;28;20181;-60
2022/05/02 11:51:50;;;;;;;5.60;4.32;;;19.00;69.00;;;;;;5116404;28;20213;-61
2022/05/02 11:54:27;;;;;;;4.93;4.28;;;18.90;67.90;;;;;;5116480;28;20692;-61
2022/05/02 11:57:20;;;;;;;4.35;3.83;;;19.10;69.60;;;;;;5116264;28;20638;-61
2022/05/02 12:00:05;;;;;;;7.65;5.03;;;19.10;69.00;;;;;;5116452;28;20200;-61
2022/05/02 12:02:54;;;;;;;4.78;4.30;;;19.20;70.40;;;;;;5116066;28;20184;-61
2022/05/02 12:05:31;;;;;;;6.05;4.72;;;19.00;70.30;;;;;;5116215;28;20267;-60
2022/05/02 12:07:59;;;;;;;5.88;4.57;;;18.70;70.00;;;;;;5116483;28;20168;-61
2022/05/02 12:10:36;;;;;;;5.68;4.80;;;18.80;69.40;;;;;;5115918;28;20587;-61
2022/05/02 12:13:04;;;;;;;6.13;4.63;;;18.80;68.20;;;;;;5116007;28;20633;-61
2022/05/02 12:15:30;;;;;;;4.65;3.83;;;19.00;68.00;;;;;;5115805;28;20206;-61
2022/05/02 12:18:03;;;;;;;5.78;4.43;;;19.20;69.30;;;;;;5115721;28;20263;-61
2022/05/02 12:20:35;;;;;;;6.40;4.53;;;19.10;67.90;;;;;;5115826;28;20237;-61
2022/05/02 12:23:16;;;;;;;6.18;4.32;;;19.40;67.20;;;;;;5116053;28;20196;-61
2022/05/02 12:25:56;;;;;;;5.88;4.43;;;19.10;67.40;;;;;;5115873;28;20222;-61
2022/05/02 12:28:47;;;;;;;5.82;4.38;;;19.20;70.20;;;;;;5115399;28;20176;-61
2022/05/02 12:31:20;;;;;;;6.80;5.10;;;19.40;70.40;;;;;;5115654;28;20201;-61
2022/05/02 12:33:53;;;;;;;6.18;4.85;;;19.30;69.60;;;;;;5115485;28;20285;-61
2022/05/02 12:36:20;;;;;;;6.35;5.07;;;19.40;69.70;;;;;;5115518;28;20165;-61
2022/05/02 12:39:03;;;;;;;7.10;5.32;;;19.40;67.40;;;;;;5115389;28;20260;-61
2022/05/02 12:41:30;;;;;;;6.10;5.03;;;19.50;68.80;;;;;;5115434;28;20169;-61
2022/05/02 12:44:12;;;;;;;7.88;5.38;;;19.60;68.70;;;;;;5115248;28;20534;-61
2022/05/02 12:46:41;;;;;;;6.63;4.60;;;19.20;69.00;;;;;;5115314;28;20210;-61
2022/05/02 12:49:16;;;;;;;6.10;4.30;;;19.10;71.10;;;;;;5115113;28;20165;-61
2022/05/02 12:51:51;;;;;;;6.10;4.55;;;19.10;71.40;;;;;;5115083;28;20200;-61
2022/05/02 12:54:18;;;;;;;5.38;4.05;;;19.10;68.70;;;;;;5115065;28;20176;-61
2022/05/02 13:00:30;;;;;;;5.72;4.55;;;19.30;68.90;;;;;;5114932;28;20175;-61
2022/05/02 13:02:37;;;;;;;6.38;4.50;;;19.70;68.40;;;;;;5104212;28;20194;-61
2022/05/02 13:05:23;;;;;;;6.93;5.00;;;19.70;67.90;;;;;;5115044;28;20185;-61
2022/05/02 13:07:50;;;;;;;6.32;4.45;;;19.70;67.40;;;;;;5114689;28;20256;-61
2022/05/02 13:10:25;;;;;;;6.63;4.30;;;19.30;67.80;;;;;;5114823;28;20247;-61
2022/05/02 13:12:59;;;;;;;6.82;3.78;;;18.90;67.90;;;;;;5115023;28;20649;-61
2022/05/02 13:15:27;;;;;;;6.30;4.53;;;18.90;69.80;;;;;;5114836;28;20168;-61
2022/05/02 13:17:57;;;;;;;4.85;4.32;;;18.80;67.30;;;;;;5113462;28;20204;-61
2022/05/02 13:20:27;;;;;;;5.50;4.30;;;18.90;69.80;;;;;;5114528;28;20172;-61
2022/05/02 13:23:13;;;;;;;4.80;4.10;;;18.90;66.10;;;;;;5114627;28;20165;-61
2022/05/02 13:26:03;;;;;;;5.20;4.20;;;19.00;69.20;;;;;;5114626;28;20177;-61
2022/05/02 13:28:51;;;;;;;5.22;4.25;;;19.40;68.90;;;;;;5114485;28;20173;-61
2022/05/02 13:31:17;;;;;;;5.80;4.15;;;19.60;67.10;;;;;;5108458;28;20212;-61
2022/05/02 13:33:51;;;;;;;7.75;4.70;;;19.60;66.50;;;;;;5114759;28;20184;-61
2022/05/02 13:36:17;;;;;;;6.32;5.03;;;19.60;66.60;;;;;;5114283;28;20588;-61
2022/05/02 13:39:03;;;;;;;5.50;4.13;;;19.40;67.00;;;;;;5114222;28;20201;-61
2022/05/02 13:41:29;;;;;;;5.60;4.18;;;19.00;65.20;;;;;;5114449;28;20645;-61
2022/05/02 13:44:14;;;;;;;5.03;3.83;;;18.70;66.00;;;;;;5114050;28;20180;-61
2022/05/02 13:46:52;;;;;;;5.07;4.18;;;18.70;66.60;;;;;;5114093;28;20180;-61
2022/05/02 13:49:46;;;;;;;6.32;4.22;;;19.10;67.00;;;;;;5114212;28;20197;-61
2022/05/02 13:52:46;;;;;;;5.35;4.00;;;19.20;67.30;;;;;;5114101;28;20205;-61